Flight Track Log - Related Links

Times and Time Zones

All times are in EDT time to prevent confusion due to time zone crossing. See the ASQ4179 flight status page for this flight to view local times or setup timezone preferences in your user account.

Time Position Orientation Groundspeed Altitude Reporting Facility
EDT Latitude Longitude Course Direction KTS MPH feet Rate Location/Type
Tue 02:29:44 PM 35.1911 -80.9508 251° West 165 190 1,600  Level Atlanta Center
Tue 02:30:32 PM 35.1536 -80.9522 182° South 177 204 3,100 2,312 Climbing Atlanta Center
Tue 02:31:33 PM 35.1086 -80.9869 212° Southwest 233 268 5,800 2,478 Climbing Atlanta Center
Tue 02:32:04 PM 35.1222 -81.0347 289° West 265 305 6,900 2,242 Climbing Atlanta Center
Tue 02:33:00 PM 35.2189 -81.2371 199° South  Level FlightAware Approximate
Tue 02:33:04 PM 35.1936 -81.0475 352° North 310 357 9,200  Level Atlanta Center
Tue 02:34:00 PM 35.1247 -81.2730 192° South  Level FlightAware Approximate
Tue 02:34:04 PM 35.2728 -81.0469 360° North 300 345 11,100  Level Atlanta Center
Tue 02:35:00 PM 35.0647 -81.3486 251° West  Level FlightAware Approximate
Tue 02:35:04 PM 35.3583 -81.0492 359° North 294 338 12,300  Level Atlanta Center
Tue 02:36:04 PM 35.4500 -81.0331 North 311 358 13,500 1,050 Climbing Atlanta Center
Tue 02:37:04 PM 35.5422 -81.0525 350° North 329 379 14,400 1,000 Climbing Atlanta Center
Tue 02:38:04 PM 35.5819 -81.1508 296° West 313 360 15,500 1,350 Climbing Atlanta Center
Tue 02:39:04 PM 35.5086 -81.2197 217° Southwest 259 298 17,100 1,150 Climbing Atlanta Center
Tue 02:40:04 PM 35.4319 -81.2453 195° South 251 289 17,800 750 Climbing Atlanta Center
Tue 02:41:04 PM 35.3542 -81.3089 214° Southwest 310 357 18,600 750 Climbing Atlanta Center
Tue 02:42:04 PM 35.2850 -81.3900 224° Southwest 345 397 19,300 700 Climbing Atlanta Center
Tue 02:43:04 PM 35.2139 -81.4789 226° Southwest 365 420 20,000 750 Climbing Atlanta Center
Tue 02:44:04 PM 35.1383 -81.5650 223° Southwest 370 426 20,800 850 Climbing Atlanta Center
Tue 02:45:04 PM 35.0589 -81.6614 225° Southwest 370 426 21,700 850 Climbing Atlanta Center
Tue 02:46:04 PM 34.9833 -81.7469 223° Southwest 370 426 22,500 850 Climbing Atlanta Center
Tue 02:47:04 PM 34.9119 -81.8403 227° Southwest 370 426 23,400 800 Climbing Atlanta Center
Tue 02:48:04 PM 34.8675 -81.9250 237° Southwest 372 428 24,100 800 Climbing Atlanta Center
Tue 02:49:04 PM 34.8047 -82.0303 234° Southwest 372 428 25,000 900 Climbing Atlanta Center
Tue 02:50:04 PM 34.7397 -82.1431 235° Southwest 372 428 25,900 850 Climbing Atlanta Center
Tue 02:51:04 PM 34.6828 -82.2453 236° Southwest 372 428 26,700 800 Climbing Atlanta Center
Tue 02:52:04 PM 34.6258 -82.3450 235° Southwest 372 428 27,500 800 Climbing Atlanta Center
Tue 02:53:04 PM 34.5686 -82.4469 236° Southwest 372 428 28,300 850 Climbing Atlanta Center
Tue 02:54:04 PM 34.5114 -82.5464 235° Southwest 372 428 29,200 1,000 Climbing Atlanta Center
Tue 02:55:04 PM 34.4522 -82.6458 234° Southwest 367 422 30,300 1,050 Climbing Atlanta Center
Tue 02:56:04 PM 34.4008 -82.7347 235° Southwest 361 415 31,300 1,050 Climbing Atlanta Center
Tue 02:57:04 PM 34.3478 -82.8311 236° Southwest 361 415 32,400 950 Climbing Atlanta Center
Tue 02:58:04 PM 34.2922 -82.9275 235° Southwest 361 415 33,200 700 Climbing Atlanta Center
Tue 02:59:04 PM 34.2347 -83.0236 234° Southwest 361 415 33,800 500 Climbing Atlanta Center
Tue 03:00:04 PM 34.1769 -83.1222 235° Southwest 361 415 34,200 550 Climbing Atlanta Center
Tue 03:01:04 PM 34.1192 -83.2233 235° Southwest 372 428 34,900 750 Climbing Atlanta Center
Tue 03:02:04 PM 34.0572 -83.3267 234° Southwest 372 428 35,700 550 Climbing Atlanta Center
Tue 03:03:04 PM 33.9911 -83.4350 234° Southwest 377 434 36,000 150 Climbing Atlanta Center
Tue 03:04:04 PM 33.9289 -83.5431 235° Southwest 377 434 36,000  Level Atlanta Center
Tue 03:05:04 PM 33.8647 -83.6511 234° Southwest 393 452 36,000  Level Atlanta Center
Tue 03:06:04 PM 33.7961 -83.7614 233° Southwest 403 464 36,000  Level Atlanta Center
Tue 03:07:04 PM 33.7336 -83.8689 235° Southwest 404 465 36,000  Level Atlanta Center
Tue 03:08:04 PM 33.6689 -83.9764 234° Southwest 404 465 36,000  Level Atlanta Center
Tue 03:09:04 PM 33.6042 -84.0861 235° Southwest 404 465 36,000  Level Atlanta Center
Tue 03:10:04 PM 33.5458 -84.1808 234° Southwest 404 465 36,000  Level Atlanta Center
Tue 03:11:04 PM 33.4808 -84.2878 234° Southwest 404 465 36,000  Level Atlanta Center
Tue 03:12:04 PM 33.4181 -84.3947 235° Southwest 404 465 36,000  Level Atlanta Center
Tue 03:13:04 PM 33.3531 -84.5014 234° Southwest 404 465 36,000  Level Atlanta Center
Tue 03:14:04 PM 33.2836 -84.6153 234° Southwest 404 465 36,000  Level Atlanta Center
Tue 03:15:04 PM 33.2206 -84.7217 235° Southwest 399 459 36,000  Level Atlanta Center
Tue 03:16:04 PM 33.1572 -84.8278 235° Southwest 399 459 36,000  Level Atlanta Center
Tue 03:17:04 PM 33.0917 -84.9314 233° Southwest 399 459 36,000  Level Atlanta Center
Tue 03:18:04 PM 33.0306 -85.0350 235° Southwest 399 459 36,000  Level Atlanta Center
Tue 03:19:04 PM 32.9647 -85.1406 233° Southwest 405 466 36,000  Level Atlanta Center
Tue 03:20:04 PM 32.9097 -85.2264 233° Southwest 392 451 36,000  Level Atlanta Center
Tue 03:21:04 PM 32.8461 -85.3269 233° Southwest 392 451 36,000  Level Atlanta Center
Tue 03:22:04 PM 32.7803 -85.4297 233° Southwest 392 451 36,000  Level Atlanta Center
Tue 03:23:04 PM 32.7164 -85.5325 234° Southwest 392 451 36,000  Level Atlanta Center
Tue 03:24:04 PM 32.6525 -85.6350 234° Southwest 387 445 36,000  Level Atlanta Center
Tue 03:25:04 PM 32.5908 -85.7375 234° Southwest 387 445 36,000  Level Atlanta Center
Tue 03:26:04 PM 32.5267 -85.8422 234° Southwest 392 451 36,000  Level Atlanta Center
Tue 03:27:04 PM 32.4561 -85.9467 231° Southwest 399 459 36,000  Level Atlanta Center
Tue 03:28:04 PM 32.3919 -86.0486 233° Southwest 399 459 36,000  Level Atlanta Center
Tue 03:29:04 PM 32.3275 -86.1528 234° Southwest 399 459 36,000  Level Atlanta Center
Tue 03:30:04 PM 32.2589 -86.2567 232° Southwest 399 459 36,000  Level Atlanta Center
Tue 03:31:04 PM 32.1900 -86.3703 234° Southwest 404 465 36,000  Level Atlanta Center
Tue 03:32:04 PM 32.1342 -86.4572 233° Southwest 397 457 36,000  Level Atlanta Center
Tue 03:33:04 PM 32.0614 -86.5533 228° Southwest 392 451 36,000  Level Atlanta Center
Tue 03:34:04 PM 31.9944 -86.6494 231° Southwest 392 451 36,000  Level Atlanta Center
Tue 03:35:04 PM 31.9108 -86.7544 227° Southwest 398 458 36,000  Level Atlanta Center
Tue 03:36:04 PM 31.8419 -86.8528 231° Southwest 398 458 36,000  Level Atlanta Center
Tue 03:37:04 PM 31.7708 -86.9483 229° Southwest 398 458 36,000  Level Atlanta Center
Tue 03:39:07 PM 31.6278 -87.1406 229° Southwest 388 447 36,000  Level Houston Center
Tue 03:40:09 PM 31.5581 -87.2381 230° Southwest 389 448 36,000  Level Houston Center
Tue 03:41:11 PM 31.4878 -87.3347 230° Southwest 390 449 36,000  Level Houston Center
Tue 03:42:13 PM 31.4169 -87.4297 229° Southwest 388 447 36,000  Level Houston Center
Tue 03:43:15 PM 31.3472 -87.5267 230° Southwest 388 447 36,000  Level Houston Center
Tue 03:44:17 PM 31.2761 -87.6211 229° Southwest 387 445 36,000  Level Houston Center
Tue 03:45:20 PM 31.2008 -87.7231 229° Southwest 387 445 36,000  Level Houston Center
Tue 03:46:22 PM 31.1317 -87.8211 231° Southwest 389 448 36,000  Level Houston Center
Tue 03:47:24 PM 31.0822 -87.9633 248° West 394 453 36,000  Level Houston Center
Tue 03:48:26 PM 31.0419 -88.0806 248° West 391 450 36,000  Level Houston Center
Tue 03:49:28 PM 31.0006 -88.1997 248° West 397 457 36,000  Level Houston Center
Tue 03:50:30 PM 30.9597 -88.3167 248° West 393 452 36,000  Level Houston Center
Tue 03:51:32 PM 30.9197 -88.4361 249° West 393 452 36,000  Level Houston Center
Tue 03:52:34 PM 30.8792 -88.5528 248° West 389 448 36,000  Level Houston Center
Tue 03:53:36 PM 30.8375 -88.6728 248° West 389 448 36,000  Level Houston Center
Tue 03:54:38 PM 30.7883 -88.8131 248° West 389 448 36,000  Level Houston Center
Tue 03:55:40 PM 30.7481 -88.9303 248° West 389 448 36,000  Level Houston Center
Tue 03:56:42 PM 30.7092 -89.0425 248° West 389 448 36,000  Level Houston Center
Tue 03:57:44 PM 30.6692 -89.1589 248° West 388 447 36,000  Level Houston Center
Tue 03:58:46 PM 30.6289 -89.2733 248° West 384 442 36,000  Level Houston Center
Tue 03:59:48 PM 30.5806 -89.4117 248° West 384 442 36,000  Level Houston Center
Tue 04:00:50 PM 30.5406 -89.5261 248° West 384 442 36,000  Level Houston Center
Tue 04:01:52 PM 30.5014 -89.6400 248° West 382 440 36,000  Level Houston Center
Tue 04:02:54 PM 30.4614 -89.7550 248° West 388 447 36,000  Level Houston Center
Tue 04:03:56 PM 30.4125 -89.8933 248° West 421 484 36,000  Level Houston Center
Tue 04:04:59 PM 30.3708 -90.0025 246° West 392 451 36,000  Level Houston Center
Tue 04:06:01 PM 30.3300 -90.1156 247° West 385 443 36,000  Level Houston Center
Tue 04:07:03 PM 30.2878 -90.2303 247° West 389 448 36,000  Level Houston Center
Tue 04:08:05 PM 30.2464 -90.3428 247° West 384 442 36,000  Level Houston Center
Tue 04:09:07 PM 30.1969 -90.4800 247° West 386 444 36,000  Level Houston Center
Tue 04:10:09 PM 30.1550 -90.5939 247° West 387 445 36,000  Level Houston Center
Tue 04:11:11 PM 30.1133 -90.7078 247° West 386 444 36,000  Level Houston Center
Tue 04:12:13 PM 30.0714 -90.8228 247° West 388 447 36,000  Level Houston Center
Tue 04:13:16 PM 30.0294 -90.9375 247° West 389 448 36,000  Level Houston Center
Tue 04:14:18 PM 29.9944 -91.0817 254° West 391 450 36,000  Level Houston Center
Tue 04:15:20 PM 29.9642 -91.2019 254° West 391 450 36,000  Level Houston Center
Tue 04:16:22 PM 29.9353 -91.3225 255° West 391 450 36,000  Level Houston Center
Tue 04:17:24 PM 29.9042 -91.4419 253° West 391 450 36,000  Level Houston Center
Tue 04:18:26 PM 29.8761 -91.5606 255° West 386 444 36,000  Level Houston Center
Tue 04:19:28 PM 29.8467 -91.6781 254° West 383 441 36,000  Level Houston Center
Tue 04:20:30 PM 29.8147 -91.8008 253° West 381 438 36,000  Level Houston Center
Tue 04:21:33 PM 29.7786 -91.9439 254° West 386 444 36,000  Level Houston Center
Tue 04:22:35 PM 29.7478 -92.0611 253° West 384 442 36,000  Level Houston Center
Tue 04:23:37 PM 29.7186 -92.1792 254° West 384 442 36,000  Level Houston Center
Tue 04:24:39 PM 29.6892 -92.2964 254° West 382 440 36,000  Level Houston Center
Tue 04:25:41 PM 29.6578 -92.4136 253° West 383 441 36,000  Level Houston Center
Tue 04:26:43 PM 29.6283 -92.5306 254° West 382 440 36,000  Level Houston Center
Tue 04:27:45 PM 29.5914 -92.6703 253° West 381 438 36,000  Level Houston Center
Tue 04:28:47 PM 29.5603 -92.7872 253° West 382 440 36,000  Level Houston Center
Tue 04:29:50 PM 29.5300 -92.9047 254° West 384 442 36,000 -672 Level Houston Center
Tue 04:30:52 PM 29.4994 -93.0219 253° West 385 443 34,600 -1,694 Descending Houston Center
Tue 04:31:54 PM 29.4883 -93.1458 264° West 394 453 32,500 -1,984 Descending Houston Center
Tue 04:32:56 PM 29.4922 -93.2714 272° West 393 452 30,500 -2,032 Descending Houston Center
Tue 04:33:58 PM 29.4975 -93.3989 273° West 399 459 28,300 -2,274 Descending Houston Center
Tue 04:35:00 PM 29.5047 -93.5567 273° West 410 472 25,800 -2,274 Descending Houston Center
Tue 04:36:02 PM 29.5094 -93.6914 272° West 417 480 23,600 -2,129 Descending Houston Center
Tue 04:37:04 PM 29.5153 -93.8214 273° West 411 473 21,400 -2,064 Descending Houston Center
Tue 04:38:07 PM 29.5192 -93.9472 272° West 400 460 19,300 -2,149 Descending Houston Center
Tue 04:39:18 PM 29.5247 -94.1036 272° West 385 443 16,600 -2,129 Descending Houston Center
Tue 04:40:11 PM 29.5283 -94.2061 272° West 380 437 14,900 -1,722 Descending Houston Center
Tue 04:41:13 PM 29.5328 -94.3094 273° West 334 384 13,300 -1,161 Descending Houston Center
Tue 04:42:15 PM 29.5628 -94.4072 289° West 332 382 12,500 -1,210 Descending Houston Center
Tue 04:43:17 PM 29.5994 -94.5008 294° West 326 375 10,800 -1,645 Descending Houston Center
Tue 04:44:19 PM 29.6389 -94.5961 295° West 269 310 9,100 -1,561 Descending Houston Center
Tue 04:45:20 PM 29.6833 -94.6650 307° West 247 284 7,600 -1,475 Descending Houston Center
Tue 04:46:21 PM 29.7372 -94.7208 318° Northwest 265 305 6,100 -1,230 Descending Houston Center
Tue 04:47:22 PM 29.7892 -94.7792 316° Northwest 262 302 5,100 -898 Descending Houston Center
Tue 04:48:28 PM 29.8383 -94.8356 315° West 260 299 4,200 -639 Descending Houston Center
Tue 04:49:24 PM 29.8894 -94.9064 310° West 256 295 3,800 -564 Descending Houston Center
Tue 04:50:25 PM 29.9175 -94.9825 293° West 260 299 3,100 -537 Descending Houston Center
Tue 04:51:27 PM 29.9478 -95.0558 295° West 253 291 2,700 -585 Descending Houston Center
Tue 04:52:28 PM 29.9633 -95.1336 283° West 260 299 1,900 -787 Descending Houston Center

Login

Don't have an account? Register now (free) for customized features, flight alerts, and more!